KBPG/BPG METAR and TAF weather

Enter ICAO airport designator
Station Type Date Time Source
KBPG METAR 2021/04/17 02:55 UTC NOAA

KBPG 170255Z AUTO 04017G21KT 10SM CLR 11/05 A3003 RMK AO2 T01080046


Station Type Date Time Source
KBPG Decoded METAR 2021/04/17 02:55 UTC NOAA

Big Spring, Big Spring McMahon-Wrinkle Airport, TX, United States (KBPG) 32-12N 101-31W
Apr 16, 2021 - 10:55 PM EDT / 2021.04.17 0255 UTC
Wind: from the NE (040 degrees) at 20 MPH (17 KT) gusting to 24 MPH (21 KT):0
Visibility: 10 mile(s):0
Sky conditions: clear
Temperature: 51.4 F (10.8 C)
Dew Point: 40.3 F (4.6 C)
Relative Humidity: 65%
Pressure (altimeter): 30.03 in. Hg (1016 hPa)
ob: KBPG 170255Z AUTO 04017G21KT 10SM CLR 11/05 A3003 RMK AO2 T01080046
cycle: 3

Station Type Date Time Source
KBPG TAF UTC NOAA

Error!

Example: see airport list